Accueil
METAR-TAF:

METAR-TAF

Aéroports :

Base aérienne 113 Saint-Dizier-Robinson

Saint-Dizier, France

latitude: 48-38N, longitude: 004-54E, altitude: 139 m

Observation

Le bulletin a été fait il y a 35 minutes, à 16:30 UTC
Vent 12 kt de nord-ouest
Température 13°C
Humidité 58%
Pression 1025 hPa
Visibilité: 8000 m
Quelques nuages à une hauteur de 3500 ft
Nuages épars à une hauteur de 4800 ft
Nuages fragmentés à une hauteur de 5600 ft

METAR: LFSI 241630Z AUTO 32012KT 8000 FEW035 SCT048 BKN056 13/05 Q1025

Heure: 18:05 (17:05 UTC)

Prévision

Le bulletin a été fait il y a 3 heures et 5 minutes, à 14:00 UTC
Prévision valable du 24 à 15 UTC au 25 à 15 UTC
Vent 10 kt de nord-ouest
Visibilité: 8000 m
Nuages épars à une hauteur de 3000 ft
Temporairement
du 24 à 23 UTC au 25 à 08 UTC
Visibilité: 2000 m
brume

TAF: LFSI 241400Z 2415/2515 32010KT 8000 SCT030 TEMPO 2423/2508 2000 BR

Observations et prévisions météorologiques de plus de 4000 aéroports (messages METAR et TAF).

Les stations disponibles sont représentées par des disques jaunes et rouges sur la carte.

Passer la souris dessus pour voir le nom de la station.

Cliquer dessus pour voir les observations et prévisions météorologiques.

Pour changer de carte: cliquez sur les boutons verts avec une croix noire pour zoomer, sur le bouton vert avec un tiret pour effectuer un zoom arrière, ou sur les flèches vertes pour les cartes adjacentes.


METAR-TAF: